createdAt,value
2023-04-09T00:02:14.698Z,6.47
2023-04-09T00:04:41.280Z,6.47
2023-04-09T00:07:07.842Z,6.51
2023-04-09T00:09:34.565Z,6.49
2023-04-09T00:12:02.301Z,6.51
2023-04-09T00:14:29.030Z,6.60
2023-04-09T00:16:55.796Z,6.51
2023-04-09T00:19:22.578Z,6.49
2023-04-09T00:21:49.275Z,6.49
2023-04-09T00:24:16.148Z,6.50
2023-04-09T00:26:42.915Z,6.54
2023-04-09T00:29:09.590Z,6.55
2023-04-09T00:31:36.200Z,6.55
2023-04-09T00:34:02.921Z,6.58
2023-04-09T00:36:29.617Z,6.64
2023-04-09T00:38:56.271Z,6.65
2023-04-09T00:41:22.935Z,6.60
2023-04-09T00:43:49.520Z,6.58
2023-04-09T00:46:17.586Z,6.59
2023-04-09T00:48:44.260Z,6.55
2023-04-09T00:51:11.068Z,6.53
2023-04-09T00:53:37.866Z,6.47
2023-04-09T00:56:06.258Z,6.49
2023-04-09T00:58:32.823Z,6.45
2023-04-09T01:00:59.567Z,6.40
2023-04-09T01:03:26.503Z,6.36
2023-04-09T01:06:15.684Z,6.39
2023-04-09T01:08:53.059Z,6.35
2023-04-09T01:11:46.556Z,6.42
2023-04-09T01:14:35.093Z,6.33
2023-04-09T01:17:15.646Z,6.31
2023-04-09T01:20:12.231Z,6.25
2023-04-09T01:22:53.455Z,6.28
2023-04-09T01:25:27.563Z,6.27
2023-04-09T01:28:19.297Z,6.26
2023-04-09T01:30:50.305Z,6.26
2023-04-09T01:33:19.186Z,6.24
2023-04-09T01:35:47.965Z,6.24
2023-04-09T01:38:16.718Z,6.30
2023-04-09T01:40:43.763Z,6.23
2023-04-09T01:43:12.141Z,6.19
2023-04-09T01:45:40.425Z,6.23
2023-04-09T01:48:07.712Z,6.18
2023-04-09T01:50:34.495Z,6.18
2023-04-09T01:53:02.503Z,6.21
2023-04-09T01:55:29.114Z,6.21
2023-04-09T01:57:55.908Z,6.24
2023-04-09T02:00:24.658Z,6.17
2023-04-09T02:03:00.853Z,6.19
2023-04-09T02:05:32.396Z,6.24
2023-04-09T02:08:02.934Z,6.14
2023-04-09T02:10:32.211Z,6.11
2023-04-09T02:13:03.708Z,5.99
2023-04-09T02:15:32.402Z,5.90
2023-04-09T02:17:59.136Z,5.89
2023-04-09T02:20:25.733Z,5.88
2023-04-09T02:22:52.510Z,5.86
2023-04-09T02:25:19.423Z,5.89
2023-04-09T02:27:46.055Z,5.88
2023-04-09T02:30:12.822Z,5.95
2023-04-09T02:32:39.537Z,5.88
2023-04-09T02:35:06.584Z,5.87
2023-04-09T02:37:35.443Z,5.83
2023-04-09T02:40:02.065Z,5.79
2023-04-09T02:42:28.667Z,5.78
2023-04-09T02:44:55.344Z,5.79
2023-04-09T02:47:22.082Z,5.75
2023-04-09T02:49:48.722Z,5.73
2023-04-09T02:55:09.641Z,5.67
2023-04-09T02:57:36.500Z,5.61
2023-04-09T03:00:03.156Z,5.58
2023-04-09T03:02:30.030Z,5.59
2023-04-09T03:04:56.808Z,5.51
2023-04-09T03:07:23.426Z,5.55
2023-04-09T03:09:50.019Z,5.57
2023-04-09T03:12:16.785Z,5.59
2023-04-09T03:14:43.415Z,5.55
2023-04-09T03:17:10.064Z,5.51
2023-04-09T03:19:36.655Z,5.51
2023-04-09T03:22:03.314Z,5.44
2023-04-09T03:24:31.486Z,5.41
2023-04-09T03:26:58.239Z,5.34
2023-04-09T03:29:24.819Z,5.31
2023-04-09T03:31:51.628Z,5.30
2023-04-09T03:34:18.259Z,5.27
2023-04-09T03:36:44.983Z,5.24
2023-04-09T03:39:11.647Z,5.21
2023-04-09T03:41:38.355Z,5.22
2023-04-09T03:44:05.185Z,5.12
2023-04-09T03:46:31.870Z,5.08
2023-04-09T03:48:58.533Z,5.08
2023-04-09T03:51:25.086Z,5.06
2023-04-09T03:53:51.762Z,5.04
2023-04-09T03:56:18.492Z,5.13
2023-04-09T03:58:45.010Z,5.11
2023-04-09T04:01:11.697Z,5.07
2023-04-09T04:03:38.489Z,5.04
2023-04-09T04:06:05.602Z,5.00
2023-04-09T04:08:32.185Z,5.00
2023-04-09T04:11:05.649Z,4.94
2023-04-09T04:13:32.418Z,4.88
2023-04-09T04:15:59.288Z,4.88
2023-04-09T04:18:25.926Z,4.88
2023-04-09T04:20:52.616Z,4.87
2023-04-09T04:23:19.178Z,4.87
2023-04-09T04:25:45.786Z,4.88
2023-04-09T04:28:12.457Z,4.86
2023-04-09T04:30:42.175Z,4.87
2023-04-09T04:33:09.048Z,4.90
2023-04-09T04:35:35.700Z,4.98
2023-04-09T04:38:02.726Z,4.96
2023-04-09T04:40:29.370Z,4.98
2023-04-09T04:42:56.004Z,4.94
2023-04-09T04:45:22.563Z,4.92
2023-04-09T04:47:49.309Z,4.84
2023-04-09T04:50:15.965Z,4.74
2023-04-09T04:52:42.598Z,4.71
2023-04-09T04:55:09.248Z,4.72
2023-04-09T04:57:36.004Z,4.67
2023-04-09T05:00:02.787Z,4.50
2023-04-09T05:02:29.632Z,4.41
2023-04-09T05:04:56.527Z,4.31
2023-04-09T05:07:23.281Z,4.21
2023-04-09T05:09:49.954Z,4.17
2023-04-09T05:12:18.176Z,4.07
2023-04-09T05:14:44.698Z,4.02
2023-04-09T05:17:11.279Z,4.04
2023-04-09T05:19:37.981Z,4.16
2023-04-09T05:22:04.714Z,4.30
2023-04-09T05:24:31.289Z,4.47
2023-04-09T05:26:58.072Z,4.54
2023-04-09T05:29:24.708Z,4.70
2023-04-09T05:31:51.306Z,4.84
2023-04-09T05:34:17.900Z,4.89
2023-04-09T05:36:44.473Z,5.03
2023-04-09T05:39:11.137Z,5.18
2023-04-09T05:41:38.805Z,5.31
2023-04-09T05:44:06.165Z,5.45
2023-04-09T05:46:32.882Z,5.60
2023-04-09T05:48:59.583Z,5.76
2023-04-09T05:51:26.330Z,5.90
2023-04-09T05:53:53.201Z,6.03
2023-04-09T05:56:22.768Z,6.19
2023-04-09T05:58:49.368Z,6.28
2023-04-09T06:01:16.152Z,6.53
2023-04-09T06:03:43.793Z,6.75
2023-04-09T06:06:11.112Z,6.90
2023-04-09T06:08:37.652Z,7.13
2023-04-09T06:11:04.894Z,7.22
2023-04-09T06:13:31.356Z,7.32
2023-04-09T06:15:58.007Z,7.49
2023-04-09T06:18:24.674Z,7.60
2023-04-09T06:20:51.341Z,7.73
2023-04-09T06:23:17.973Z,7.73
2023-04-09T06:25:44.521Z,7.94
2023-04-09T06:28:11.808Z,8.17
2023-04-09T06:30:38.467Z,8.31
2023-04-09T06:33:05.085Z,8.39
2023-04-09T06:35:31.914Z,8.51
2023-04-09T06:37:58.628Z,8.85
2023-04-09T06:40:25.237Z,9.07
2023-04-09T06:42:51.969Z,9.37
2023-04-09T06:45:18.551Z,9.67
2023-04-09T06:47:45.210Z,9.76
2023-04-09T06:50:11.912Z,9.86
2023-04-09T06:52:38.515Z,9.92
2023-04-09T06:55:05.893Z,10.01
2023-04-09T06:57:32.531Z,10.19
2023-04-09T06:59:59.334Z,10.44
2023-04-09T07:02:26.601Z,10.69
2023-04-09T07:04:53.596Z,10.95
2023-04-09T07:07:21.065Z,11.02
2023-04-09T07:09:47.643Z,10.79
2023-04-09T07:12:14.399Z,11.29
2023-04-09T07:14:40.969Z,11.88
2023-04-09T07:17:07.579Z,11.96
2023-04-09T07:19:34.427Z,11.88
2023-04-09T07:22:01.045Z,11.77
2023-04-09T07:24:27.655Z,11.92
2023-04-09T07:26:54.839Z,12.34
2023-04-09T07:29:22.530Z,12.35
2023-04-09T07:31:49.276Z,12.75
2023-04-09T07:34:15.970Z,12.59
2023-04-09T07:36:43.040Z,12.88
2023-04-09T07:39:09.821Z,12.88
2023-04-09T07:41:36.851Z,12.99
2023-04-09T07:44:04.308Z,13.66
2023-04-09T07:46:30.927Z,14.07
2023-04-09T07:48:57.603Z,13.94
2023-04-09T07:51:25.264Z,13.20
2023-04-09T07:53:51.859Z,13.40
2023-04-09T07:56:18.414Z,13.75
2023-04-09T07:58:45.029Z,14.28
2023-04-09T08:01:11.725Z,14.16
2023-04-09T08:03:38.568Z,14.06
2023-04-09T08:06:05.581Z,14.62
2023-04-09T08:08:32.173Z,14.18
2023-04-09T08:10:58.791Z,14.71
2023-04-09T08:13:25.559Z,14.49
2023-04-09T08:15:52.382Z,14.66
2023-04-09T08:18:19.079Z,14.68
2023-04-09T08:20:45.831Z,15.11
2023-04-09T08:23:12.859Z,15.23
2023-04-09T08:25:39.452Z,14.45
2023-04-09T08:28:06.673Z,14.62
2023-04-09T08:30:34.431Z,15.16
2023-04-09T08:33:02.259Z,15.08
2023-04-09T08:35:31.144Z,15.96
2023-04-09T08:37:58.096Z,16.16
2023-04-09T08:40:24.742Z,15.36
2023-04-09T08:42:57.220Z,15.01
2023-04-09T08:45:24.321Z,15.46
2023-04-09T08:47:51.791Z,15.82
2023-04-09T08:50:19.564Z,15.91
2023-04-09T08:52:49.257Z,15.37
2023-04-09T08:55:16.132Z,15.29
2023-04-09T08:57:43.544Z,15.84
2023-04-09T09:00:10.884Z,15.81
2023-04-09T09:02:39.585Z,16.25
2023-04-09T09:05:06.811Z,15.64
2023-04-09T09:07:34.282Z,14.60
2023-04-09T09:10:05.198Z,15.30
2023-04-09T09:12:39.575Z,15.42
2023-04-09T09:15:27.093Z,14.63
2023-04-09T09:18:00.234Z,15.28
2023-04-09T09:20:27.845Z,15.34
2023-04-09T09:22:56.635Z,14.14
2023-04-09T09:25:24.895Z,13.63
2023-04-09T09:27:52.590Z,13.65
2023-04-09T09:30:27.448Z,14.32
2023-04-09T09:32:55.075Z,14.91
2023-04-09T09:35:22.013Z,15.11
2023-04-09T09:38:01.489Z,15.41
2023-04-09T09:40:28.877Z,14.82
2023-04-09T09:42:58.262Z,15.07
2023-04-09T09:45:25.958Z,15.51
2023-04-09T09:47:54.031Z,15.75
2023-04-09T09:50:25.489Z,16.42
2023-04-09T09:52:59.057Z,15.43
2023-04-09T09:55:31.101Z,15.96
2023-04-09T09:58:02.175Z,16.02
2023-04-09T10:00:32.148Z,16.21
2023-04-09T10:03:14.678Z,16.58
2023-04-09T10:05:42.237Z,15.85
2023-04-09T10:08:10.311Z,15.68
2023-04-09T10:10:39.328Z,15.90
2023-04-09T10:13:07.811Z,16.32
2023-04-09T10:15:34.492Z,15.87
2023-04-09T10:18:02.113Z,16.20
2023-04-09T10:21:12.679Z,15.85
2023-04-09T10:23:44.501Z,14.93
2023-04-09T10:26:11.506Z,15.45
2023-04-09T10:28:38.584Z,15.87
2023-04-09T10:31:06.979Z,16.47
2023-04-09T10:33:37.315Z,16.99
2023-04-09T10:36:06.251Z,17.06
2023-04-09T10:38:47.007Z,17.06
2023-04-09T10:41:27.899Z,17.41
2023-04-09T10:43:57.802Z,17.63
2023-04-09T10:46:35.010Z,16.01
2023-04-09T10:49:12.428Z,14.86
2023-04-09T10:51:40.354Z,14.75
2023-04-09T10:54:27.889Z,15.34
2023-04-09T10:57:24.746Z,15.93
2023-04-09T10:59:55.666Z,16.46
2023-04-09T11:02:40.739Z,15.51
2023-04-09T11:05:26.046Z,14.99
2023-04-09T11:08:04.598Z,15.31
2023-04-09T11:10:32.438Z,15.22
2023-04-09T11:12:59.779Z,14.55
2023-04-09T11:15:26.632Z,14.74
2023-04-09T11:17:53.332Z,14.83
2023-04-09T11:20:24.120Z,14.67
2023-04-09T11:22:52.657Z,14.05
2023-04-09T11:25:25.607Z,14.41
2023-04-09T11:27:55.977Z,14.97
2023-04-09T11:30:22.642Z,15.68
2023-04-09T11:32:50.464Z,15.87
2023-04-09T11:35:19.842Z,15.20
2023-04-09T11:37:47.455Z,15.50
2023-04-09T11:40:19.981Z,15.96
2023-04-09T11:42:48.872Z,15.97
2023-04-09T11:45:16.973Z,15.72
2023-04-09T11:47:44.895Z,15.79
2023-04-09T11:50:13.310Z,15.81
2023-04-09T11:52:41.537Z,15.32
2023-04-09T11:55:10.588Z,15.06
2023-04-09T11:57:41.861Z,16.19
2023-04-09T12:00:13.976Z,16.94
2023-04-09T12:02:46.766Z,17.14
2023-04-09T12:05:41.057Z,17.37
2023-04-09T12:08:09.069Z,17.30
2023-04-09T12:10:38.220Z,17.40
2023-04-09T12:13:10.581Z,17.68
2023-04-09T12:15:41.253Z,17.60
2023-04-09T12:18:09.536Z,17.47
2023-04-09T12:20:39.823Z,18.04
2023-04-09T12:23:07.574Z,17.78
2023-04-09T12:25:37.719Z,18.56
2023-04-09T12:28:06.617Z,18.52
2023-04-09T12:30:34.002Z,18.71
2023-04-09T12:33:01.233Z,17.98
2023-04-09T12:35:28.443Z,17.39
2023-04-09T12:37:55.761Z,16.46
2023-04-09T12:40:22.681Z,16.94
2023-04-09T12:42:49.549Z,17.61
2023-04-09T12:45:18.521Z,18.28
2023-04-09T12:47:46.022Z,18.45
2023-04-09T12:50:13.733Z,18.25
2023-04-09T12:52:40.668Z,18.68
2023-04-09T12:55:08.036Z,17.37
2023-04-09T12:57:34.976Z,17.45
2023-04-09T13:00:01.916Z,17.66
2023-04-09T13:02:28.827Z,17.17
2023-04-09T13:04:55.785Z,17.28
2023-04-09T13:07:22.902Z,17.23
2023-04-09T13:09:52.768Z,17.74
2023-04-09T13:12:21.594Z,17.23
2023-04-09T13:14:48.888Z,17.47
2023-04-09T13:17:16.433Z,17.62
2023-04-09T13:19:43.206Z,17.81
2023-04-09T13:22:10.607Z,17.48
2023-04-09T13:24:38.142Z,15.95
2023-04-09T13:27:06.507Z,16.68
2023-04-09T13:29:33.379Z,16.04
2023-04-09T13:32:02.946Z,16.52
2023-04-09T13:34:29.868Z,16.65
2023-04-09T13:36:56.736Z,16.04
2023-04-09T13:39:23.396Z,16.22
2023-04-09T13:41:50.031Z,16.61
2023-04-09T13:44:17.016Z,16.35
2023-04-09T13:46:43.768Z,16.62
2023-04-09T13:49:10.394Z,16.76
2023-04-09T13:51:37.276Z,16.78
2023-04-09T13:54:06.017Z,16.17
2023-04-09T13:56:33.141Z,16.28
2023-04-09T13:59:00.096Z,15.75
2023-04-09T14:01:28.458Z,16.31
2023-04-09T14:03:55.622Z,16.07
2023-04-09T14:06:22.873Z,15.67
2023-04-09T14:08:49.723Z,15.80
2023-04-09T14:11:16.943Z,15.76
2023-04-09T14:13:43.728Z,15.39
2023-04-09T14:16:10.801Z,15.82
2023-04-09T14:18:37.617Z,15.53
2023-04-09T14:21:04.787Z,15.52
2023-04-09T14:23:31.460Z,15.26
2023-04-09T14:25:58.264Z,15.63
2023-04-09T14:28:24.946Z,15.85
2023-04-09T14:30:51.713Z,15.57
2023-04-09T14:33:18.441Z,15.47
2023-04-09T14:35:45.277Z,15.58
2023-04-09T14:38:12.914Z,15.39
2023-04-09T14:40:39.470Z,15.05
2023-04-09T14:43:06.488Z,15.06
2023-04-09T14:45:33.248Z,15.35
2023-04-09T14:47:59.917Z,15.33
2023-04-09T14:50:26.762Z,14.91
2023-04-09T14:52:53.497Z,14.91
2023-04-09T14:55:20.328Z,14.92
2023-04-09T14:57:47.100Z,15.17
2023-04-09T15:00:13.911Z,15.16
2023-04-09T15:02:41.741Z,14.95
2023-04-09T15:05:09.185Z,15.17
2023-04-09T15:07:35.969Z,15.36
2023-04-09T15:10:02.950Z,15.43
2023-04-09T15:12:31.940Z,15.31
2023-04-09T15:14:58.847Z,15.56
2023-04-09T15:17:26.728Z,15.30
2023-04-09T15:19:54.304Z,15.52
2023-04-09T15:22:21.603Z,15.54
2023-04-09T15:24:48.313Z,15.42
2023-04-09T15:27:15.135Z,15.48
2023-04-09T15:29:41.872Z,15.27
2023-04-09T15:32:08.443Z,15.25
2023-04-09T15:34:35.172Z,15.26
2023-04-09T15:37:01.867Z,15.10
2023-04-09T15:39:28.740Z,14.72
2023-04-09T15:41:59.136Z,14.58
2023-04-09T15:44:26.235Z,14.50
2023-04-09T15:46:53.023Z,14.53
2023-04-09T15:49:20.159Z,14.41
2023-04-09T15:51:46.862Z,14.43
2023-04-09T15:54:13.524Z,14.34
2023-04-09T15:56:40.521Z,14.21
2023-04-09T15:59:08.485Z,14.17
2023-04-09T16:01:36.660Z,14.02
2023-04-09T16:04:04.933Z,13.67
2023-04-09T16:06:32.076Z,13.79
2023-04-09T16:08:58.914Z,13.66
2023-04-09T16:11:26.356Z,13.41
2023-04-09T16:13:53.447Z,13.22
2023-04-09T16:16:21.115Z,13.06
2023-04-09T16:18:47.898Z,12.99
2023-04-09T16:21:14.954Z,12.90
2023-04-09T16:23:41.747Z,12.81
2023-04-09T16:26:08.597Z,12.77
2023-04-09T16:28:35.508Z,12.84
2023-04-09T16:31:02.120Z,12.78
2023-04-09T16:33:28.780Z,12.70
2023-04-09T16:35:55.513Z,12.65
2023-04-09T16:38:23.824Z,12.66
2023-04-09T16:40:50.834Z,12.58
2023-04-09T16:43:17.656Z,12.42
2023-04-09T16:45:44.396Z,12.26
2023-04-09T16:48:12.612Z,12.32
2023-04-09T16:50:40.146Z,12.29
2023-04-09T16:53:08.435Z,12.26
2023-04-09T16:55:35.421Z,12.14
2023-04-09T16:58:02.014Z,12.12
2023-04-09T17:00:28.831Z,11.96
2023-04-09T17:02:56.839Z,11.89
2023-04-09T17:05:23.896Z,11.85
2023-04-09T17:07:50.633Z,11.90
2023-04-09T17:10:18.981Z,11.95
2023-04-09T17:12:45.893Z,11.86
2023-04-09T17:15:12.993Z,11.85
2023-04-09T17:17:39.828Z,11.82
2023-04-09T17:20:07.057Z,11.72
2023-04-09T17:22:35.166Z,11.78
2023-04-09T17:25:02.706Z,11.73
2023-04-09T17:27:29.316Z,11.68
2023-04-09T17:29:56.182Z,11.58
2023-04-09T17:32:22.885Z,11.60
2023-04-09T17:34:49.638Z,11.58
2023-04-09T17:37:16.596Z,11.57
2023-04-09T17:39:43.131Z,11.46
2023-04-09T17:42:12.025Z,11.28
2023-04-09T17:44:39.037Z,11.26
2023-04-09T17:47:07.556Z,11.27
2023-04-09T17:49:34.740Z,11.18
2023-04-09T17:52:01.817Z,11.17
2023-04-09T17:54:35.211Z,11.19
2023-04-09T17:57:04.233Z,11.03
2023-04-09T17:59:31.296Z,10.99
2023-04-09T18:01:58.167Z,10.94
2023-04-09T18:04:25.572Z,10.92
2023-04-09T18:06:52.711Z,10.88
2023-04-09T18:09:19.424Z,10.83
2023-04-09T18:11:46.607Z,10.72
2023-04-09T18:14:13.421Z,10.69
2023-04-09T18:16:40.467Z,10.59
2023-04-09T18:19:07.847Z,10.66
2023-04-09T18:21:37.857Z,10.45
2023-04-09T18:24:05.201Z,10.48
2023-04-09T18:26:33.946Z,10.42
2023-04-09T18:29:01.411Z,10.42
2023-04-09T18:31:28.727Z,10.38
2023-04-09T18:33:55.666Z,10.32
2023-04-09T18:36:22.537Z,10.30
2023-04-09T18:38:49.289Z,10.30
2023-04-09T18:41:25.596Z,10.16
2023-04-09T18:43:52.553Z,10.21
2023-04-09T18:46:19.438Z,10.12
2023-04-09T18:48:47.300Z,10.05
2023-04-09T18:51:14.883Z,9.97
2023-04-09T18:53:42.294Z,9.99
2023-04-09T18:56:09.371Z,10.01
2023-04-09T18:58:36.564Z,9.99
2023-04-09T19:01:11.432Z,9.93
2023-04-09T19:03:39.563Z,9.99
2023-04-09T19:06:14.608Z,10.04
2023-04-09T19:08:41.899Z,9.89
2023-04-09T19:11:08.585Z,9.93
2023-04-09T19:13:37.293Z,9.90
2023-04-09T19:16:04.730Z,9.89
2023-04-09T19:18:32.254Z,9.76
2023-04-09T19:20:59.004Z,9.69
2023-04-09T19:23:26.876Z,9.58
2023-04-09T19:25:55.397Z,9.44
2023-04-09T19:28:22.993Z,9.44
2023-04-09T19:30:53.855Z,9.52
2023-04-09T19:33:21.874Z,9.46
2023-04-09T19:35:49.241Z,9.36
2023-04-09T19:38:16.602Z,9.37
2023-04-09T19:40:43.432Z,9.40
2023-04-09T19:43:10.820Z,9.34
2023-04-09T19:45:38.801Z,9.25
2023-04-09T19:48:07.017Z,9.21
2023-04-09T19:50:41.282Z,9.23
2023-04-09T19:53:07.981Z,9.16
2023-04-09T19:55:35.035Z,9.12
2023-04-09T19:58:02.118Z,9.08
2023-04-09T20:00:29.090Z,9.01
2023-04-09T20:02:57.429Z,9.03
2023-04-09T20:05:24.435Z,9.05
2023-04-09T20:07:51.917Z,8.89
2023-04-09T20:10:19.231Z,8.91
2023-04-09T20:12:49.634Z,8.94
2023-04-09T20:15:20.513Z,8.88
2023-04-09T20:17:48.407Z,8.88
2023-04-09T20:20:19.842Z,8.81
2023-04-09T20:22:56.460Z,8.83
2023-04-09T20:25:24.477Z,8.84
2023-04-09T20:27:54.673Z,8.86
2023-04-09T20:30:21.557Z,8.89
2023-04-09T20:32:49.233Z,8.86
2023-04-09T20:35:16.079Z,8.89
2023-04-09T20:37:42.712Z,8.90
2023-04-09T20:40:11.822Z,8.81
2023-04-09T20:42:40.698Z,8.68
2023-04-09T20:45:08.464Z,8.66
2023-04-09T20:47:35.179Z,8.61
2023-04-09T20:50:02.372Z,8.67
2023-04-09T20:52:29.136Z,8.69
2023-04-09T20:54:57.358Z,8.72
2023-04-09T20:57:24.099Z,8.68
2023-04-09T20:59:51.058Z,8.76
2023-04-09T21:02:17.856Z,8.79
2023-04-09T21:04:44.971Z,8.72
2023-04-09T21:07:11.759Z,8.61
2023-04-09T21:09:38.548Z,8.59
2023-04-09T21:12:06.358Z,8.61
2023-04-09T21:14:33.174Z,8.52
2023-04-09T21:17:00.031Z,8.50
2023-04-09T21:19:26.707Z,8.59
2023-04-09T21:21:53.364Z,8.51
2023-04-09T21:24:20.084Z,8.55
2023-04-09T21:26:51.611Z,8.52
2023-04-09T21:29:21.318Z,8.48
2023-04-09T21:31:48.944Z,8.46
2023-04-09T21:34:16.241Z,8.47
2023-04-09T21:36:45.340Z,8.38
2023-04-09T21:39:12.469Z,8.43
2023-04-09T21:41:39.469Z,8.41
2023-04-09T21:44:08.698Z,8.43
2023-04-09T21:46:40.941Z,8.35
2023-04-09T21:49:07.733Z,8.32
2023-04-09T21:51:34.553Z,8.24
2023-04-09T21:54:04.755Z,8.28
2023-04-09T21:56:32.694Z,8.28
2023-04-09T21:58:59.544Z,8.21
2023-04-09T22:01:29.500Z,8.12
2023-04-09T22:03:58.098Z,8.11
2023-04-09T22:06:24.792Z,8.07
2023-04-09T22:08:56.328Z,8.02
2023-04-09T22:11:26.862Z,8.01
2023-04-09T22:13:53.789Z,7.98
2023-04-09T22:16:20.692Z,7.96
2023-04-09T22:18:47.501Z,7.89
2023-04-09T22:21:15.874Z,7.92
2023-04-09T22:23:42.702Z,7.92
2023-04-09T22:26:09.464Z,7.82
2023-04-09T22:28:36.115Z,7.81
2023-04-09T22:31:02.811Z,7.85
2023-04-09T22:33:29.445Z,7.83
2023-04-09T22:35:56.315Z,7.92
2023-04-09T22:38:23.118Z,7.84
2023-04-09T22:40:49.664Z,7.80
2023-04-09T22:43:17.318Z,7.78
2023-04-09T22:45:51.586Z,7.80
2023-04-09T22:48:19.107Z,7.84
2023-04-09T22:50:46.157Z,7.77
2023-04-09T22:53:13.292Z,7.77
2023-04-09T22:55:39.922Z,7.77
2023-04-09T22:58:06.792Z,7.77
2023-04-09T23:00:33.364Z,7.77
2023-04-09T23:03:00.210Z,7.79
2023-04-09T23:05:27.012Z,7.64
2023-04-09T23:07:53.673Z,7.65
2023-04-09T23:10:20.693Z,7.67
2023-04-09T23:12:47.309Z,7.67
2023-04-09T23:15:14.194Z,7.65
2023-04-09T23:17:41.915Z,7.56
2023-04-09T23:20:11.417Z,7.53
2023-04-09T23:22:38.030Z,7.63
2023-04-09T23:25:05.023Z,7.54
2023-04-09T23:27:31.609Z,7.54
2023-04-09T23:29:58.671Z,7.63
2023-04-09T23:32:25.444Z,7.58
2023-04-09T23:34:52.286Z,7.59
2023-04-09T23:37:19.281Z,7.54
2023-04-09T23:39:48.899Z,7.54
2023-04-09T23:42:15.678Z,7.65
2023-04-09T23:44:44.129Z,7.57
2023-04-09T23:47:11.455Z,7.47
2023-04-09T23:49:38.268Z,7.46
2023-04-09T23:52:05.030Z,7.50
2023-04-09T23:54:32.846Z,7.53
2023-04-09T23:56:59.808Z,7.53
2023-04-09T23:59:26.555Z,7.40
